Time;durP1;ratioP1;P1;durP2;ratioP2;P2;SDS_P1;SDS_P2;PMS_P1;PMS_P2;Temp;Humidity;BMP_temperature;BMP_pressure;BME280_temperature;BME280_humidity;BME280_pressure;Samples;Min_cycle;Max_cycle;Signal;HPM_P1;HPM_P2
2023/12/14 00:00:42;;;;;;;10.57;4.63;;;;;;;;;;5007180;28;20037;-61
2023/12/14 00:03:08;;;;;;;8.73;4.38;;;;;;;;;;5006647;28;20048;-61
2023/12/14 00:05:35;;;;;;;8.90;4.50;;;;;;;;;;5006945;28;20045;-61
2023/12/14 00:08:01;;;;;;;9.68;4.88;;;;;;;;;;5001934;28;20589;-61
2023/12/14 00:10:27;;;;;;;8.35;4.88;;;;;;;;;;5006478;28;20037;-61
2023/12/14 00:12:55;;;;;;;10.05;4.93;;;;;;;;;;5004918;28;20045;-61
2023/12/14 00:15:21;;;;;;;8.85;4.60;;;;;;;;;;5005995;28;20022;-61
2023/12/14 00:17:47;;;;;;;8.45;4.15;;;;;;;;;;5006088;28;20029;-61
2023/12/14 00:20:14;;;;;;;7.40;4.15;;;;;;;;;;5006083;28;20504;-61
2023/12/14 00:22:40;;;;;;;10.48;4.85;;;;;;;;;;5006609;28;20239;-61
2023/12/14 00:25:06;;;;;;;6.85;3.58;;;;;;;;;;5006046;28;20049;-61
2023/12/14 00:27:32;;;;;;;8.25;4.18;;;;;;;;;;5005859;28;20037;-61
2023/12/14 00:29:58;;;;;;;7.20;4.15;;;;;;;;;;5006212;28;20029;-61
2023/12/14 00:32:24;;;;;;;9.52;4.43;;;;;;;;;;5006184;28;20045;-61
2023/12/14 00:34:51;;;;;;;8.38;3.92;;;;;;;;;;5006435;28;20087;-61
2023/12/14 00:37:17;;;;;;;8.30;4.07;;;;;;;;;;5005951;28;20029;-61
2023/12/14 00:39:43;;;;;;;8.05;4.32;;;;;;;;;;5006372;28;20033;-61
2023/12/14 00:42:09;;;;;;;7.30;4.22;;;;;;;;;;5006495;28;20038;-61
2023/12/14 00:44:35;;;;;;;6.80;3.83;;;;;;;;;;5017676;28;20053;-61
2023/12/14 00:47:02;;;;;;;8.55;4.18;;;;;;;;;;5006057;28;20036;-61
2023/12/14 00:49:28;;;;;;;8.90;3.88;;;;;;;;;;5005358;28;20807;-61
2023/12/14 00:51:54;;;;;;;8.68;4.05;;;;;;;;;;5005498;28;20040;-61
2023/12/14 00:54:20;;;;;;;8.23;3.78;;;;;;;;;;5006437;28;20045;-61
2023/12/14 00:56:46;;;;;;;7.68;4.60;;;;;;;;;;5006307;28;20144;-61
2023/12/14 00:59:12;;;;;;;9.35;3.55;;;;;;;;;;5005452;28;20116;-61
2023/12/14 01:01:38;;;;;;;9.07;3.72;;;;;;;;;;5006271;28;20036;-61
2023/12/14 01:04:04;;;;;;;7.22;3.03;;;;;;;;;;5005816;28;20034;-61
2023/12/14 01:06:30;;;;;;;6.05;3.35;;;;;;;;;;5005934;28;20037;-60
2023/12/14 01:08:56;;;;;;;5.60;3.05;;;;;;;;;;5005748;28;20026;-61
2023/12/14 01:11:22;;;;;;;6.78;3.72;;;;;;;;;;5006155;28;20037;-61
2023/12/14 01:13:48;;;;;;;10.27;3.65;;;;;;;;;;5004000;28;20095;-61
2023/12/14 01:16:15;;;;;;;9.43;3.80;;;;;;;;;;5004027;28;20038;-61
2023/12/14 01:18:41;;;;;;;7.00;3.97;;;;;;;;;;5005638;28;20068;-61
2023/12/14 01:21:07;;;;;;;11.25;4.25;;;;;;;;;;5005984;28;20038;-61
2023/12/14 01:23:33;;;;;;;11.77;5.18;;;;;;;;;;5006148;28;20041;-61
2023/12/14 01:25:59;;;;;;;12.13;5.28;;;;;;;;;;5005614;28;20965;-61
2023/12/14 01:28:25;;;;;;;11.77;5.38;;;;;;;;;;5006079;28;20046;-61
2023/12/14 01:30:51;;;;;;;10.43;5.55;;;;;;;;;;5005664;28;20060;-61
2023/12/14 01:33:17;;;;;;;10.48;5.30;;;;;;;;;;5009807;28;20045;-61
2023/12/14 01:35:43;;;;;;;12.15;5.60;;;;;;;;;;5010173;28;20037;-61
2023/12/14 01:38:09;;;;;;;13.43;5.65;;;;;;;;;;5009825;28;20038;-61
2023/12/14 01:40:35;;;;;;;13.85;6.10;;;;;;;;;;5009599;28;20021;-61
2023/12/14 01:43:09;;;;;;;12.07;6.22;;;;;;;;;;5009482;28;20049;-61
2023/12/14 01:45:35;;;;;;;10.60;5.68;;;;;;;;;;5009696;28;20045;-61
2023/12/14 01:48:01;;;;;;;11.32;5.93;;;;;;;;;;5008979;28;20042;-61
2023/12/14 01:50:27;;;;;;;16.23;6.88;;;;;;;;;;5009949;28;20079;-61
2023/12/14 01:52:53;;;;;;;13.93;6.75;;;;;;;;;;5009191;28;20108;-61
2023/12/14 01:55:20;;;;;;;12.48;6.55;;;;;;;;;;5009509;28;20030;-61
2023/12/14 01:57:46;;;;;;;11.48;5.45;;;;;;;;;;5010172;28;20032;-61
2023/12/14 02:00:24;;;;;;;20.92;8.07;;;;;;;;;;5008568;28;20057;-61
2023/12/14 02:02:50;;;;;;;12.57;6.75;;;;;;;;;;5008691;28;20029;-61
2023/12/14 02:05:16;;;;;;;14.68;6.88;;;;;;;;;;5009104;28;20049;-61
2023/12/14 02:07:42;;;;;;;12.80;6.30;;;;;;;;;;5008178;28;20030;-61
2023/12/14 02:10:08;;;;;;;10.43;5.90;;;;;;;;;;5009088;28;20034;-61
2023/12/14 02:12:35;;;;;;;12.98;6.10;;;;;;;;;;5009433;28;20076;-61
2023/12/14 02:15:01;;;;;;;14.40;5.95;;;;;;;;;;5008246;28;20059;-61
2023/12/14 02:17:27;;;;;;;16.10;6.07;;;;;;;;;;5009325;28;20030;-61
2023/12/14 02:19:53;;;;;;;13.70;6.32;;;;;;;;;;5008075;28;20041;-61
2023/12/14 02:22:19;;;;;;;12.55;6.40;;;;;;;;;;5009007;28;20044;-61
2023/12/14 02:24:45;;;;;;;11.68;5.75;;;;;;;;;;5009352;28;21081;-61
2023/12/14 02:27:11;;;;;;;13.23;5.63;;;;;;;;;;5009214;28;20548;-61
2023/12/14 02:29:37;;;;;;;11.93;5.65;;;;;;;;;;5007882;28;20808;-61
2023/12/14 02:32:03;;;;;;;12.77;6.00;;;;;;;;;;5009187;28;20026;-61
2023/12/14 02:34:29;;;;;;;12.77;5.30;;;;;;;;;;5008499;28;20072;-61
2023/12/14 02:36:55;;;;;;;10.73;5.78;;;;;;;;;;5008665;28;21018;-61
2023/12/14 02:39:21;;;;;;;13.80;5.90;;;;;;;;;;5009120;28;20041;-61
2023/12/14 02:41:47;;;;;;;11.73;6.38;;;;;;;;;;5008479;28;20041;-61
2023/12/14 02:44:13;;;;;;;17.10;6.22;;;;;;;;;;5007933;28;20156;-61
2023/12/14 02:46:39;;;;;;;10.90;6.00;;;;;;;;;;5008908;28;20118;-61
2023/12/14 02:49:05;;;;;;;12.20;6.32;;;;;;;;;;5008346;28;20060;-61
2023/12/14 02:51:31;;;;;;;8.88;5.50;;;;;;;;;;5007112;28;20045;-61
2023/12/14 02:53:58;;;;;;;13.30;5.38;;;;;;;;;;5008278;28;20031;-61
2023/12/14 02:56:24;;;;;;;12.68;5.50;;;;;;;;;;5008414;28;20033;-61
2023/12/14 02:58:51;;;;;;;10.02;5.25;;;;;;;;;;5008537;28;20068;-61
2023/12/14 03:01:24;;;;;;;13.15;5.78;;;;;;;;;;5008006;28;20021;-61
2023/12/14 03:03:50;;;;;;;12.83;5.70;;;;;;;;;;5008386;28;20031;-61
2023/12/14 03:06:16;;;;;;;10.23;5.35;;;;;;;;;;5007579;28;20106;-61
2023/12/14 03:08:42;;;;;;;13.68;5.57;;;;;;;;;;5007243;28;20060;-61
2023/12/14 03:11:08;;;;;;;11.60;5.57;;;;;;;;;;5008262;28;20060;-61
2023/12/14 03:13:34;;;;;;;12.18;6.15;;;;;;;;;;5007593;28;20567;-61
2023/12/14 03:16:00;;;;;;;13.98;6.03;;;;;;;;;;5007576;28;20038;-61
2023/12/14 03:18:26;;;;;;;13.93;6.07;;;;;;;;;;5008125;28;20413;-61
2023/12/14 03:20:52;;;;;;;15.75;5.75;;;;;;;;;;5007499;28;20493;-61
2023/12/14 03:23:18;;;;;;;14.48;5.97;;;;;;;;;;5007048;28;20698;-61
2023/12/14 03:25:44;;;;;;;10.75;5.43;;;;;;;;;;5008343;28;20393;-61
2023/12/14 03:28:10;;;;;;;11.80;4.93;;;;;;;;;;5007280;28;20051;-61
2023/12/14 03:30:36;;;;;;;12.68;6.00;;;;;;;;;;5007878;28;20048;-60
2023/12/14 03:33:02;;;;;;;10.15;5.68;;;;;;;;;;5007620;28;20044;-61
2023/12/14 03:35:28;;;;;;;13.02;6.10;;;;;;;;;;5007899;28;20041;-61
2023/12/14 03:37:54;;;;;;;15.23;6.32;;;;;;;;;;5007256;28;20060;-61
2023/12/14 03:40:20;;;;;;;13.75;6.57;;;;;;;;;;5007462;28;20053;-61
2023/12/14 03:42:46;;;;;;;11.38;5.97;;;;;;;;;;5007584;28;20044;-61
2023/12/14 03:45:12;;;;;;;15.02;6.13;;;;;;;;;;5006665;28;20044;-61
2023/12/14 03:47:38;;;;;;;13.90;6.40;;;;;;;;;;5007138;28;20029;-61
2023/12/14 03:50:05;;;;;;;11.98;6.95;;;;;;;;;;5007573;28;20061;-61
2023/12/14 03:52:31;;;;;;;14.65;6.18;;;;;;;;;;5006640;28;20041;-61
2023/12/14 03:54:57;;;;;;;14.90;6.82;;;;;;;;;;5005674;28;20761;-61
2023/12/14 03:57:23;;;;;;;17.25;6.35;;;;;;;;;;5007272;28;20034;-61
2023/12/14 03:59:49;;;;;;;14.73;7.10;;;;;;;;;;5007450;28;20042;-61
2023/12/14 04:02:15;;;;;;;14.40;7.03;;;;;;;;;;5006845;28;20501;-61
2023/12/14 04:04:41;;;;;;;15.05;6.38;;;;;;;;;;5007096;28;20045;-61
2023/12/14 04:07:07;;;;;;;14.65;6.72;;;;;;;;;;5006505;28;20064;-61
2023/12/14 04:09:33;;;;;;;14.98;7.25;;;;;;;;;;5005645;28;20037;-61
2023/12/14 04:11:59;;;;;;;14.50;6.95;;;;;;;;;;5007135;28;20042;-61
2023/12/14 04:14:25;;;;;;;17.10;7.75;;;;;;;;;;5005712;28;20056;-61
2023/12/14 04:16:51;;;;;;;13.98;6.72;;;;;;;;;;5006701;28;20037;-61
2023/12/14 04:19:17;;;;;;;18.33;8.23;;;;;;;;;;5006534;28;21847;-61
2023/12/14 04:21:43;;;;;;;14.02;7.07;;;;;;;;;;5006632;28;20033;-61
2023/12/14 04:24:12;;;;;;;14.73;7.57;;;;;;;;;;5006565;28;20033;-61
2023/12/14 04:26:38;;;;;;;15.32;7.55;;;;;;;;;;5006313;28;20558;-61
2023/12/14 04:29:04;;;;;;;12.88;6.53;;;;;;;;;;5006687;28;20502;-61
2023/12/14 04:31:30;;;;;;;12.57;7.40;;;;;;;;;;5006230;28;20044;-61
2023/12/14 04:33:56;;;;;;;13.18;7.35;;;;;;;;;;5006661;28;20103;-61
2023/12/14 04:36:22;;;;;;;15.27;6.82;;;;;;;;;;5005768;28;21033;-61
2023/12/14 04:38:48;;;;;;;14.95;7.32;;;;;;;;;;5006481;28;20018;-61
2023/12/14 04:41:14;;;;;;;13.32;6.35;;;;;;;;;;5005783;28;20100;-61
2023/12/14 04:43:40;;;;;;;14.48;6.97;;;;;;;;;;5005787;28;20784;-61
2023/12/14 04:46:06;;;;;;;12.70;7.28;;;;;;;;;;5006440;28;20049;-60
2023/12/14 04:48:33;;;;;;;16.55;7.35;;;;;;;;;;5006787;28;20056;-61
2023/12/14 04:50:59;;;;;;;16.00;7.85;;;;;;;;;;5005639;28;20036;-61
2023/12/14 04:53:25;;;;;;;16.60;7.15;;;;;;;;;;5006914;28;20107;-61
2023/12/14 04:55:51;;;;;;;11.48;7.00;;;;;;;;;;5005974;28;20026;-61
2023/12/14 04:58:17;;;;;;;14.30;7.57;;;;;;;;;;5005992;28;20029;-60
2023/12/14 05:00:43;;;;;;;14.57;6.28;;;;;;;;;;5006310;28;20026;-61
2023/12/14 05:03:10;;;;;;;12.30;6.97;;;;;;;;;;5005079;28;20042;-61
2023/12/14 05:05:36;;;;;;;13.10;7.05;;;;;;;;;;5005446;28;20078;-61
2023/12/14 05:08:02;;;;;;;12.52;6.57;;;;;;;;;;5006255;28;20061;-61
2023/12/14 05:10:28;;;;;;;14.80;7.32;;;;;;;;;;5006961;28;20702;-60
2023/12/14 05:12:54;;;;;;;14.65;7.55;;;;;;;;;;5005910;28;21015;-61
2023/12/14 05:15:21;;;;;;;16.50;7.55;;;;;;;;;;5006078;28;20037;-61
2023/12/14 05:17:47;;;;;;;14.05;7.72;;;;;;;;;;5006157;28;20025;-61
2023/12/14 05:20:13;;;;;;;13.80;7.40;;;;;;;;;;5006129;28;20044;-61
2023/12/14 05:22:39;;;;;;;18.67;8.07;;;;;;;;;;5006049;28;20120;-61
2023/12/14 05:25:05;;;;;;;17.65;7.80;;;;;;;;;;5006261;28;20446;-61
2023/12/14 05:27:31;;;;;;;17.52;7.53;;;;;;;;;;5006277;28;20033;-61
2023/12/14 05:29:57;;;;;;;14.95;7.68;;;;;;;;;;5005075;28;20060;-61
2023/12/14 05:32:23;;;;;;;16.67;7.45;;;;;;;;;;5005918;28;20040;-61
2023/12/14 05:34:49;;;;;;;12.45;7.40;;;;;;;;;;5006371;28;20030;-61
2023/12/14 05:37:16;;;;;;;17.95;8.30;;;;;;;;;;5006291;28;20034;-61
2023/12/14 05:39:43;;;;;;;12.40;7.03;;;;;;;;;;5006176;28;20041;-61
2023/12/14 05:42:09;;;;;;;16.52;8.23;;;;;;;;;;5005768;28;20041;-61
2023/12/14 05:44:35;;;;;;;13.38;6.85;;;;;;;;;;5005426;28;20026;-61
2023/12/14 05:47:01;;;;;;;15.23;7.47;;;;;;;;;;5003715;28;20657;-61
2023/12/14 05:49:27;;;;;;;14.98;7.50;;;;;;;;;;5005964;28;20057;-61
2023/12/14 05:51:53;;;;;;;13.45;7.32;;;;;;;;;;5005632;28;20037;-61
2023/12/14 05:54:20;;;;;;;14.80;7.55;;;;;;;;;;5005954;28;20036;-61
2023/12/14 05:56:46;;;;;;;17.67;8.90;;;;;;;;;;5005727;28;20033;-61
2023/12/14 05:59:12;;;;;;;20.10;7.78;;;;;;;;;;5005753;28;20034;-61
2023/12/14 06:01:38;;;;;;;16.52;8.05;;;;;;;;;;5004927;28;20036;-61
2023/12/14 06:04:04;;;;;;;16.92;7.22;;;;;;;;;;5005847;28;20034;-61
2023/12/14 06:06:30;;;;;;;12.63;7.18;;;;;;;;;;5004867;28;20029;-61
2023/12/14 06:08:56;;;;;;;14.15;7.30;;;;;;;;;;5005664;28;20084;-61
2023/12/14 06:11:22;;;;;;;17.58;7.20;;;;;;;;;;5004737;28;20060;-61
2023/12/14 06:13:49;;;;;;;13.95;7.55;;;;;;;;;;5019972;28;21131;-61
2023/12/14 06:16:15;;;;;;;15.88;9.50;;;;;;;;;;5004955;28;20041;-61
2023/12/14 06:18:43;;;;;;;23.05;11.05;;;;;;;;;;5006271;28;20117;-60
2023/12/14 06:21:09;;;;;;;17.70;9.40;;;;;;;;;;5008609;28;20022;-61
2023/12/14 06:23:37;;;;;;;14.23;8.68;;;;;;;;;;5008392;28;20033;-61
2023/12/14 06:26:04;;;;;;;15.02;8.60;;;;;;;;;;5008267;28;20065;-61
2023/12/14 06:28:30;;;;;;;19.65;10.68;;;;;;;;;;5008290;28;20033;-61
2023/12/14 06:30:57;;;;;;;22.70;14.00;;;;;;;;;;5007770;28;20589;-61
2023/12/14 06:33:23;;;;;;;22.23;14.02;;;;;;;;;;5007786;28;20033;-60
2023/12/14 06:35:49;;;;;;;22.42;13.55;;;;;;;;;;5009150;28;20029;-61
2023/12/14 06:38:15;;;;;;;21.27;12.55;;;;;;;;;;5009136;28;20030;-61
2023/12/14 06:40:42;;;;;;;16.23;9.77;;;;;;;;;;5008795;28;20026;-61
2023/12/14 06:43:08;;;;;;;17.15;8.75;;;;;;;;;;5008450;28;20209;-61
2023/12/14 06:45:37;;;;;;;20.00;12.77;;;;;;;;;;5008359;28;20041;-61
2023/12/14 06:48:04;;;;;;;18.95;9.80;;;;;;;;;;5007787;28;20057;-61
2023/12/14 06:50:30;;;;;;;17.40;10.43;;;;;;;;;;5008456;28;20043;-61
2023/12/14 06:52:56;;;;;;;16.35;9.13;;;;;;;;;;5008158;28;20060;-61
2023/12/14 06:55:22;;;;;;;20.48;11.57;;;;;;;;;;5008156;28;20172;-61
2023/12/14 06:57:48;;;;;;;17.13;10.20;;;;;;;;;;5008613;28;20500;-61
2023/12/14 07:00:14;;;;;;;18.35;10.70;;;;;;;;;;5007235;28;20367;-61
2023/12/14 07:02:40;;;;;;;19.48;8.52;;;;;;;;;;5008714;28;21031;-61
2023/12/14 07:05:07;;;;;;;14.18;8.07;;;;;;;;;;5007289;28;20140;-61
2023/12/14 07:07:33;;;;;;;15.60;7.90;;;;;;;;;;5007725;28;20030;-61
2023/12/14 07:09:59;;;;;;;15.85;7.43;;;;;;;;;;5008060;28;20029;-61
2023/12/14 07:12:25;;;;;;;15.43;7.72;;;;;;;;;;5005002;28;20083;-61
2023/12/14 07:14:51;;;;;;;17.85;8.45;;;;;;;;;;4999710;28;20037;-60
2023/12/14 07:17:17;;;;;;;21.48;9.02;;;;;;;;;;4999280;28;20041;-61
2023/12/14 07:19:43;;;;;;;16.33;9.98;;;;;;;;;;5000537;28;20022;-61
2023/12/14 07:22:09;;;;;;;14.23;8.43;;;;;;;;;;5000466;28;20040;-61
2023/12/14 07:24:35;;;;;;;15.55;8.57;;;;;;;;;;4999733;28;20073;-61
2023/12/14 07:27:01;;;;;;;18.55;8.40;;;;;;;;;;5000164;28;20045;-61
2023/12/14 07:29:27;;;;;;;19.48;9.07;;;;;;;;;;4999402;28;20048;-61
2023/12/14 07:31:53;;;;;;;22.23;8.38;;;;;;;;;;5000514;28;20904;-61
2023/12/14 07:34:20;;;;;;;17.73;9.52;;;;;;;;;;5000769;28;20505;-61
2023/12/14 07:36:46;;;;;;;20.13;10.48;;;;;;;;;;5000085;28;20041;-61
2023/12/14 07:39:12;;;;;;;21.35;10.18;;;;;;;;;;4999861;28;20034;-61
2023/12/14 07:41:38;;;;;;;23.08;9.85;;;;;;;;;;5000185;28;20479;-61
2023/12/14 07:44:04;;;;;;;21.55;10.63;;;;;;;;;;5000480;28;20626;-61
2023/12/14 07:46:30;;;;;;;19.83;9.52;;;;;;;;;;4999519;28;21412;-61
2023/12/14 07:48:57;;;;;;;16.38;8.95;;;;;;;;;;4999769;28;20922;-61
2023/12/14 07:51:23;;;;;;;19.65;8.38;;;;;;;;;;5000346;28;20247;-61
2023/12/14 07:53:50;;;;;;;15.73;7.78;;;;;;;;;;4999908;28;20042;-61
2023/12/14 07:56:16;;;;;;;17.67;9.23;;;;;;;;;;4998037;28;20025;-61
2023/12/14 07:58:42;;;;;;;19.73;7.97;;;;;;;;;;4999715;28;20186;-61
2023/12/14 08:01:08;;;;;;;19.45;8.02;;;;;;;;;;4999980;28;20037;-61
2023/12/14 08:03:36;;;;;;;16.95;8.38;;;;;;;;;;5000753;28;20633;-61
2023/12/14 08:06:02;;;;;;;17.42;8.25;;;;;;;;;;4998901;28;21813;-61
2023/12/14 08:08:28;;;;;;;15.82;8.52;;;;;;;;;;4999954;28;20037;-61
2023/12/14 08:10:54;;;;;;;16.25;8.20;;;;;;;;;;5000439;28;20416;-61
2023/12/14 08:13:20;;;;;;;15.48;7.57;;;;;;;;;;4999307;28;20104;-61
2023/12/14 08:15:46;;;;;;;16.73;8.60;;;;;;;;;;4999154;28;20099;-61
2023/12/14 08:18:12;;;;;;;17.25;7.85;;;;;;;;;;5000381;28;20030;-61
2023/12/14 08:20:38;;;;;;;15.05;8.15;;;;;;;;;;5000312;28;20044;-61
2023/12/14 08:23:04;;;;;;;14.05;8.70;;;;;;;;;;5000112;28;20392;-61
2023/12/14 08:25:30;;;;;;;17.35;9.45;;;;;;;;;;4999685;28;20044;-61
2023/12/14 08:27:56;;;;;;;19.23;8.90;;;;;;;;;;4999388;28;20055;-61
2023/12/14 08:30:23;;;;;;;16.60;8.02;;;;;;;;;;4999839;28;20056;-61
2023/12/14 08:32:49;;;;;;;16.83;8.98;;;;;;;;;;4997954;28;20930;-61
2023/12/14 08:35:16;;;;;;;20.25;9.50;;;;;;;;;;4999697;28;20074;-61
2023/12/14 08:37:43;;;;;;;16.60;9.25;;;;;;;;;;4999694;28;20619;-61
2023/12/14 08:40:09;;;;;;;15.30;8.98;;;;;;;;;;4998800;28;20062;-61
2023/12/14 08:42:35;;;;;;;17.15;7.90;;;;;;;;;;4998997;28;20065;-61
2023/12/14 08:45:02;;;;;;;16.98;9.52;;;;;;;;;;4999669;28;20079;-61
2023/12/14 08:47:28;;;;;;;21.00;8.70;;;;;;;;;;4998543;28;20037;-61
2023/12/14 08:49:54;;;;;;;17.98;9.02;;;;;;;;;;4999359;28;21074;-61
2023/12/14 08:52:20;;;;;;;15.68;8.52;;;;;;;;;;4998869;28;20056;-63
2023/12/14 08:54:46;;;;;;;19.05;8.95;;;;;;;;;;4998560;28;20046;-63
2023/12/14 08:57:12;;;;;;;17.50;9.95;;;;;;;;;;4998720;28;20033;-64
2023/12/14 08:59:38;;;;;;;16.67;9.15;;;;;;;;;;4999734;28;20568;-64
2023/12/14 09:02:05;;;;;;;21.13;9.35;;;;;;;;;;4998814;28;20040;-64
2023/12/14 09:04:31;;;;;;;16.15;9.30;;;;;;;;;;4999952;28;20710;-64
2023/12/14 09:06:57;;;;;;;16.90;8.95;;;;;;;;;;4997418;28;20433;-64
2023/12/14 09:09:23;;;;;;;18.20;8.68;;;;;;;;;;4997400;28;20544;-64
2023/12/14 09:11:49;;;;;;;18.60;8.98;;;;;;;;;;4998169;28;20508;-64
2023/12/14 09:14:16;;;;;;;18.83;9.55;;;;;;;;;;4998567;28;20664;-64
2023/12/14 09:16:42;;;;;;;17.38;8.95;;;;;;;;;;4998820;28;20658;-64
2023/12/14 09:19:08;;;;;;;17.15;9.10;;;;;;;;;;4998490;28;20116;-64
2023/12/14 09:21:34;;;;;;;19.45;8.93;;;;;;;;;;4998444;28;20033;-64
2023/12/14 09:24:01;;;;;;;16.55;8.82;;;;;;;;;;4998552;28;20038;-64
2023/12/14 09:26:27;;;;;;;17.10;8.77;;;;;;;;;;4997983;28;20061;-63
2023/12/14 09:28:53;;;;;;;14.52;8.05;;;;;;;;;;4998049;28;20029;-63
2023/12/14 09:31:19;;;;;;;19.20;8.95;;;;;;;;;;4998377;28;20148;-63
2023/12/14 09:33:45;;;;;;;18.45;9.68;;;;;;;;;;4999014;28;21709;-64
2023/12/14 09:36:12;;;;;;;20.02;10.75;;;;;;;;;;4998073;28;20867;-64
2023/12/14 09:38:39;;;;;;;17.02;9.70;;;;;;;;;;4999070;28;20099;-64
2023/12/14 09:41:07;;;;;;;19.02;8.73;;;;;;;;;;4998281;28;22013;-64
2023/12/14 09:43:33;;;;;;;19.13;9.88;;;;;;;;;;4998196;28;20041;-64
2023/12/14 09:46:00;;;;;;;16.60;9.07;;;;;;;;;;4998056;28;20090;-64
2023/12/14 09:48:27;;;;;;;16.73;8.75;;;;;;;;;;4998581;28;20092;-64
2023/12/14 09:50:53;;;;;;;19.77;9.95;;;;;;;;;;4998290;28;21779;-64
2023/12/14 09:53:19;;;;;;;17.10;9.35;;;;;;;;;;5000438;28;21272;-64
2023/12/14 09:55:45;;;;;;;19.02;9.60;;;;;;;;;;5002480;28;20700;-64
2023/12/14 09:58:12;;;;;;;21.92;9.90;;;;;;;;;;5002013;28;20026;-63
2023/12/14 10:00:39;;;;;;;17.52;9.13;;;;;;;;;;4995265;28;20036;-63
2023/12/14 10:03:25;;;;;;;18.92;9.00;;;;;;;;;;4996306;28;20037;-63
2023/12/14 10:05:51;;;;;;;22.90;10.00;;;;;;;;;;4996325;28;20145;-63
2023/12/14 10:08:18;;;;;;;18.80;9.32;;;;;;;;;;4996474;28;20030;-63
2023/12/14 10:10:44;;;;;;;18.30;10.05;;;;;;;;;;4997050;28;21751;-63
2023/12/14 10:13:12;;;;;;;17.73;9.27;;;;;;;;;;4996195;28;20658;-63
2023/12/14 10:15:41;;;;;;;19.45;9.85;;;;;;;;;;4996708;28;20079;-63
2023/12/14 10:18:08;;;;;;;23.95;10.70;;;;;;;;;;4995684;28;20064;-63
2023/12/14 10:20:34;;;;;;;16.75;9.82;;;;;;;;;;4996280;28;20033;-63
2023/12/14 10:23:00;;;;;;;20.55;10.02;;;;;;;;;;4995275;28;20033;-63
2023/12/14 10:25:26;;;;;;;17.40;10.05;;;;;;;;;;4995384;28;20029;-63
2023/12/14 10:27:55;;;;;;;17.00;10.07;;;;;;;;;;4995545;28;21126;-63
2023/12/14 10:30:21;;;;;;;18.75;9.85;;;;;;;;;;4995604;28;20032;-63
2023/12/14 10:32:50;;;;;;;19.90;10.57;;;;;;;;;;4995470;28;20038;-63
2023/12/14 10:35:19;;;;;;;16.55;9.95;;;;;;;;;;4994935;28;20239;-63
2023/12/14 10:37:45;;;;;;;19.65;9.30;;;;;;;;;;4995792;28;20302;-63
2023/12/14 10:40:12;;;;;;;17.63;9.40;;;;;;;;;;4996144;28;20029;-63
2023/12/14 10:42:39;;;;;;;17.80;9.10;;;;;;;;;;4995696;28;20026;-63
2023/12/14 10:45:06;;;;;;;19.42;10.40;;;;;;;;;;4994442;28;20464;-63
2023/12/14 10:47:33;;;;;;;17.48;9.65;;;;;;;;;;4991803;28;20029;-63
2023/12/14 10:50:01;;;;;;;21.25;9.88;;;;;;;;;;4995233;28;20076;-63
2023/12/14 10:52:28;;;;;;;16.60;10.15;;;;;;;;;;4995788;28;20116;-64
2023/12/14 10:54:59;;;;;;;19.73;9.57;;;;;;;;;;4995503;28;20042;-64
2023/12/14 10:57:25;;;;;;;17.60;9.73;;;;;;;;;;4995910;28;20113;-64
2023/12/14 10:59:56;;;;;;;21.05;9.20;;;;;;;;;;4994891;28;20717;-64
2023/12/14 11:02:22;;;;;;;15.60;9.25;;;;;;;;;;4995815;28;20116;-64
2023/12/14 11:04:55;;;;;;;16.45;9.43;;;;;;;;;;4995320;28;20048;-64
2023/12/14 11:07:21;;;;;;;;;;;;;;;;;;4994479;28;20030;-64
2023/12/14 11:09:47;;;;;;;18.27;9.00;;;;;;;;;;4995030;28;20472;-64
2023/12/14 11:12:13;;;;;;;20.08;9.82;;;;;;;;;;4995487;28;20026;-64
2023/12/14 11:14:40;;;;;;;19.67;10.23;;;;;;;;;;4994175;28;20910;-64
2023/12/14 11:17:07;;;;;;;16.63;9.57;;;;;;;;;;4994576;28;20095;-63
2023/12/14 11:19:33;;;;;;;20.35;9.70;;;;;;;;;;5010032;28;20041;-63
2023/12/14 11:22:08;;;;;;;20.88;9.80;;;;;;;;;;4994659;28;20029;-63
2023/12/14 11:24:38;;;;;;;17.67;9.40;;;;;;;;;;4995057;28;20037;-63
2023/12/14 11:27:07;;;;;;;17.98;9.55;;;;;;;;;;4994679;28;20484;-63
2023/12/14 11:29:33;;;;;;;16.42;9.15;;;;;;;;;;4995143;28;20048;-63
2023/12/14 11:31:59;;;;;;;15.85;9.38;;;;;;;;;;4995163;28;20037;-63
2023/12/14 11:34:26;;;;;;;17.20;9.70;;;;;;;;;;4994838;28;20065;-63
2023/12/14 11:36:52;;;;;;;20.75;10.38;;;;;;;;;;4995229;28;20037;-63
2023/12/14 11:39:20;;;;;;;20.85;9.43;;;;;;;;;;4995527;28;20041;-63
2023/12/14 11:41:59;;;;;;;16.85;8.90;;;;;;;;;;4994459;28;20111;-63
2023/12/14 11:44:26;;;;;;;17.65;9.40;;;;;;;;;;4993941;28;20251;-63
2023/12/14 11:46:52;;;;;;;14.85;9.00;;;;;;;;;;4994158;28;20070;-63
2023/12/14 11:49:18;;;;;;;15.50;7.65;;;;;;;;;;4995420;28;20066;-63
2023/12/14 11:51:47;;;;;;;17.65;9.20;;;;;;;;;;4994367;28;21468;-63
2023/12/14 11:54:13;;;;;;;17.17;9.00;;;;;;;;;;4994940;28;20037;-63
2023/12/14 11:56:39;;;;;;;18.80;9.15;;;;;;;;;;4993994;28;20033;-63
2023/12/14 11:59:05;;;;;;;15.88;8.48;;;;;;;;;;4994096;28;20132;-63
2023/12/14 12:01:33;;;;;;;17.50;9.75;;;;;;;;;;4992765;28;20034;-63
2023/12/14 12:04:09;;;;;;;15.98;9.05;;;;;;;;;;4993767;28;20044;-63
2023/12/14 12:06:35;;;;;;;17.85;8.70;;;;;;;;;;4992824;28;20021;-61
2023/12/14 12:09:05;;;;;;;17.30;8.77;;;;;;;;;;4993309;28;20041;-61
2023/12/14 12:11:31;;;;;;;15.45;8.73;;;;;;;;;;4992744;28;20062;-61
2023/12/14 12:13:59;;;;;;;16.52;8.70;;;;;;;;;;4993811;28;20199;-61
2023/12/14 12:16:25;;;;;;;14.77;8.90;;;;;;;;;;5007140;28;20038;-61
2023/12/14 12:18:52;;;;;;;13.20;8.00;;;;;;;;;;4992626;28;20762;-61
2023/12/14 12:21:18;;;;;;;17.17;9.20;;;;;;;;;;4992584;28;20497;-61
2023/12/14 12:23:44;;;;;;;18.63;10.60;;;;;;;;;;4993791;28;20072;-61
2023/12/14 12:26:10;;;;;;;14.98;8.55;;;;;;;;;;4993325;28;20038;-61
2023/12/14 12:28:37;;;;;;;16.27;9.07;;;;;;;;;;4993696;28;20048;-61
2023/12/14 12:31:04;;;;;;;13.60;8.38;;;;;;;;;;4992995;28;20064;-61
2023/12/14 12:33:31;;;;;;;15.55;8.50;;;;;;;;;;4992326;28;20033;-61
2023/12/14 12:35:57;;;;;;;18.45;9.45;;;;;;;;;;4991913;28;20117;-61
2023/12/14 12:38:23;;;;;;;13.63;8.48;;;;;;;;;;4992943;28;20034;-61
2023/12/14 12:40:49;;;;;;;15.15;8.73;;;;;;;;;;4992601;28;20025;-61
2023/12/14 12:43:15;;;;;;;13.85;8.07;;;;;;;;;;4993543;28;20038;-61
2023/12/14 12:45:41;;;;;;;19.65;8.68;;;;;;;;;;4995342;28;20033;-61
2023/12/14 12:48:07;;;;;;;14.23;7.80;;;;;;;;;;4995470;28;20123;-61
2023/12/14 12:50:33;;;;;;;18.00;8.15;;;;;;;;;;4994805;28;20050;-61
2023/12/14 12:52:59;;;;;;;14.80;7.88;;;;;;;;;;4996016;28;21082;-61
2023/12/14 12:55:25;;;;;;;13.45;7.50;;;;;;;;;;4995295;28;21607;-60
2023/12/14 12:57:51;;;;;;;14.82;8.18;;;;;;;;;;4995062;28;20037;-60
2023/12/14 13:00:18;;;;;;;11.95;7.55;;;;;;;;;;5009906;28;21732;-61
2023/12/14 13:02:45;;;;;;;15.18;7.80;;;;;;;;;;4995880;28;20025;-60
2023/12/14 13:05:11;;;;;;;10.82;7.13;;;;;;;;;;4993562;28;21508;-61
2023/12/14 13:07:38;;;;;;;13.95;7.78;;;;;;;;;;4994311;28;20033;-61
2023/12/14 13:10:06;;;;;;;15.35;8.00;;;;;;;;;;4993926;28;20029;-61
2023/12/14 13:12:33;;;;;;;14.10;7.88;;;;;;;;;;4992351;28;20156;-61
2023/12/14 13:15:00;;;;;;;13.05;7.45;;;;;;;;;;4993849;28;20064;-61
2023/12/14 13:17:26;;;;;;;15.68;8.50;;;;;;;;;;4994003;28;20042;-60
2023/12/14 13:19:52;;;;;;;15.48;7.70;;;;;;;;;;4993397;28;20556;-61
2023/12/14 13:22:19;;;;;;;13.93;8.05;;;;;;;;;;4993941;28;20034;-61
2023/12/14 13:24:45;;;;;;;16.52;8.27;;;;;;;;;;4992880;28;20052;-61
2023/12/14 13:27:12;;;;;;;18.30;8.52;;;;;;;;;;4993596;28;20507;-61
2023/12/14 13:29:38;;;;;;;13.40;8.43;;;;;;;;;;4994703;28;20745;-61
2023/12/14 13:32:04;;;;;;;12.90;7.95;;;;;;;;;;4994641;28;21711;-60
2023/12/14 13:34:30;;;;;;;13.95;8.20;;;;;;;;;;4993122;28;20076;-61
2023/12/14 13:36:57;;;;;;;15.57;8.20;;;;;;;;;;4993985;28;20112;-61
2023/12/14 13:39:23;;;;;;;16.42;8.18;;;;;;;;;;4993676;28;20032;-61
2023/12/14 13:41:49;;;;;;;16.00;8.15;;;;;;;;;;4993917;28;20102;-60
2023/12/14 13:44:15;;;;;;;16.60;8.38;;;;;;;;;;4991237;28;20029;-61
2023/12/14 13:46:41;;;;;;;12.80;7.90;;;;;;;;;;4998082;28;20504;-61
2023/12/14 13:49:08;;;;;;;14.07;7.97;;;;;;;;;;4997531;28;21808;-61
2023/12/14 13:51:34;;;;;;;12.70;7.18;;;;;;;;;;4998232;28;20693;-61
2023/12/14 13:54:00;;;;;;;14.77;7.13;;;;;;;;;;4996834;28;20688;-61
2023/12/14 13:56:26;;;;;;;11.35;6.95;;;;;;;;;;4998044;28;20026;-61
2023/12/14 13:58:52;;;;;;;12.52;7.55;;;;;;;;;;4997459;28;20080;-61
2023/12/14 14:01:18;;;;;;;14.95;6.90;;;;;;;;;;4998110;28;20037;-61
2023/12/14 14:03:46;;;;;;;13.90;7.35;;;;;;;;;;4998049;28;20649;-61
2023/12/14 14:06:12;;;;;;;15.80;8.23;;;;;;;;;;4996952;28;20057;-61
2023/12/14 14:08:39;;;;;;;12.50;6.90;;;;;;;;;;4996422;28;20130;-60
2023/12/14 14:11:05;;;;;;;14.18;7.47;;;;;;;;;;4995166;28;20054;-61
2023/12/14 14:13:32;;;;;;;16.60;7.80;;;;;;;;;;4997299;28;20598;-61
2023/12/14 14:15:58;;;;;;;13.73;8.20;;;;;;;;;;4997632;28;20029;-61
2023/12/14 14:18:24;;;;;;;11.95;7.53;;;;;;;;;;4996458;28;20567;-61
2023/12/14 14:20:50;;;;;;;14.13;7.65;;;;;;;;;;4997568;28;20048;-61
2023/12/14 14:23:16;;;;;;;16.70;7.88;;;;;;;;;;4997038;28;20552;-61
2023/12/14 14:25:42;;;;;;;11.20;6.85;;;;;;;;;;4998680;28;20402;-61